Time;durP1;ratioP1;P1;durP2;ratioP2;P2;SDS_P1;SDS_P2;PMS_P1;PMS_P2;Temp;Humidity;BMP_temperature;BMP_pressure;BME280_temperature;BME280_humidity;BME280_pressure;Samples;Min_cycle;Max_cycle;Signal;HPM_P1;HPM_P2
2023/11/06 00:00:33;;;;;;;5.30;1.20;;;10.90;99.90;;;;;;5036873;28;20037;-54
2023/11/06 00:02:59;;;;;;;3.83;0.90;;;10.90;99.90;;;;;;5036488;28;20034;-51
2023/11/06 00:05:25;;;;;;;5.37;1.03;;;10.90;99.90;;;;;;5036497;28;20030;-51
2023/11/06 00:07:51;;;;;;;4.17;0.87;;;11.00;99.90;;;;;;5036611;28;20033;-51
2023/11/06 00:10:17;;;;;;;2.90;0.87;;;11.00;99.90;;;;;;5036187;28;20089;-53
2023/11/06 00:12:44;;;;;;;3.47;0.93;;;11.00;99.90;;;;;;5040859;28;20033;-51
2023/11/06 00:15:10;;;;;;;6.07;1.10;;;11.10;99.90;;;;;;5040472;28;20104;-50
2023/11/06 00:17:38;;;;;;;4.30;1.00;;;11.10;99.90;;;;;;5040869;28;20112;-50
2023/11/06 00:20:10;;;;;;;4.65;0.90;;;11.10;99.90;;;;;;5040484;28;20037;-49
2023/11/06 00:22:36;;;;;;;6.93;1.33;;;11.10;99.90;;;;;;5039628;28;20033;-52
2023/11/06 00:25:04;;;;;;;5.20;1.17;;;11.10;99.90;;;;;;5039959;28;20037;-52
2023/11/06 00:27:29;;;;;;;2.27;0.80;;;11.10;99.90;;;;;;5040266;28;20037;-52
2023/11/06 00:29:55;;;;;;;3.23;1.13;;;11.10;99.90;;;;;;5022185;28;20375;-51
2023/11/06 00:32:20;;;;;;;4.27;1.13;;;11.10;99.90;;;;;;5022560;28;20029;-52
2023/11/06 00:34:46;;;;;;;4.30;1.20;;;11.10;99.90;;;;;;5021937;28;20036;-51
2023/11/06 00:37:12;;;;;;;3.83;0.90;;;11.20;99.90;;;;;;5021551;28;20044;-51
2023/11/06 00:39:37;;;;;;;4.23;1.10;;;11.20;99.90;;;;;;5021412;28;20060;-49
2023/11/06 00:42:07;;;;;;;5.10;1.20;;;11.10;99.90;;;;;;5022776;28;20375;-54
2023/11/06 00:44:33;;;;;;;4.00;0.90;;;11.10;99.90;;;;;;5040942;28;20095;-49
2023/11/06 00:46:59;;;;;;;3.07;1.10;;;11.20;99.90;;;;;;5022548;28;20033;-49
2023/11/06 00:49:25;;;;;;;3.37;0.93;;;11.20;99.90;;;;;;5021772;28;20083;-50
2023/11/06 00:51:51;;;;;;;5.27;1.23;;;11.10;99.90;;;;;;5039894;28;20099;-51
2023/11/06 00:54:17;;;;;;;4.23;1.00;;;11.10;99.90;;;;;;5022366;28;20089;-49
2023/11/06 00:56:43;;;;;;;2.23;0.70;;;11.10;99.90;;;;;;5038323;28;20025;-54
2023/11/06 00:59:08;;;;;;;3.13;0.60;;;11.10;99.90;;;;;;5019935;28;20029;-50
2023/11/06 01:01:34;;;;;;;3.10;0.73;;;11.00;99.90;;;;;;5037613;28;20025;-54
2023/11/06 01:04:01;;;;;;;3.20;0.67;;;10.90;99.90;;;;;;5037817;28;20026;-54
2023/11/06 01:06:27;;;;;;;4.20;1.40;;;10.90;99.90;;;;;;5037091;28;20036;-50
2023/11/06 01:08:54;;;;;;;7.57;0.97;;;10.80;99.90;;;;;;5019498;28;20034;-55
2023/11/06 01:11:20;;;;;;;5.03;0.90;;;10.90;99.90;;;;;;5037301;28;20033;-55
2023/11/06 01:13:46;;;;;;;2.67;1.10;;;10.80;99.90;;;;;;5019937;28;20033;-55
2023/11/06 01:16:12;;;;;;;6.87;1.07;;;10.70;99.90;;;;;;5019160;28;20063;-55
2023/11/06 01:18:38;;;;;;;7.17;1.77;;;10.70;99.90;;;;;;5020552;28;20038;-50
2023/11/06 01:21:05;;;;;;;4.43;1.70;;;10.70;99.90;;;;;;5039665;28;20030;-52
2023/11/06 01:23:31;;;;;;;9.50;1.67;;;10.70;99.90;;;;;;5037310;28;20101;-52
2023/11/06 01:25:56;;;;;;;3.07;0.80;;;10.70;99.90;;;;;;5039616;28;20030;-54
2023/11/06 01:28:22;;;;;;;3.33;0.77;;;10.70;99.90;;;;;;5039026;28;20033;-51
2023/11/06 01:30:47;;;;;;;10.20;1.27;;;10.70;99.90;;;;;;5039265;28;20473;-52
2023/11/06 01:33:15;;;;;;;5.30;1.30;;;10.70;99.90;;;;;;5021455;28;20089;-50
2023/11/06 01:35:41;;;;;;;6.47;1.00;;;10.70;99.90;;;;;;5021533;28;20037;-50
2023/11/06 01:38:07;;;;;;;2.60;0.67;;;10.60;99.90;;;;;;5039796;28;20037;-52
2023/11/06 01:40:33;;;;;;;4.17;1.40;;;10.70;99.90;;;;;;5039011;28;20371;-51
2023/11/06 01:43:05;;;;;;;3.03;0.80;;;10.70;99.90;;;;;;5021791;28;20083;-51
2023/11/06 01:45:34;;;;;;;4.03;0.70;;;10.70;99.90;;;;;;5039369;28;20051;-50
2023/11/06 01:48:02;;;;;;;2.42;0.68;;;10.70;99.90;;;;;;5020870;28;20033;-51
2023/11/06 01:50:34;;;;;;;1.27;0.50;;;10.60;99.90;;;;;;5021462;28;20041;-54
2023/11/06 01:53:03;;;;;;;0.80;0.50;;;10.60;99.90;;;;;;5021102;28;20489;-54
2023/11/06 01:55:30;;;;;;;1.92;0.70;;;10.50;99.90;;;;;;5020656;28;20029;-51
2023/11/06 01:57:56;;;;;;;4.77;0.63;;;10.40;99.90;;;;;;5020964;28;20390;-51
2023/11/06 02:00:26;;;;;;;3.60;0.60;;;10.30;99.90;;;;;;5020208;28;20038;-50
2023/11/06 02:02:52;;;;;;;2.47;0.60;;;10.30;99.90;;;;;;5021310;28;20456;-51
2023/11/06 02:05:18;;;;;;;1.67;0.50;;;10.20;99.90;;;;;;5020683;28;20038;-51
2023/11/06 02:07:45;;;;;;;3.33;0.80;;;10.20;99.90;;;;;;5038825;28;20037;-50
2023/11/06 02:10:11;;;;;;;1.43;0.63;;;10.20;99.90;;;;;;5004358;28;20104;-50
2023/11/06 02:12:38;;;;;;;2.93;1.03;;;10.30;99.90;;;;;;5021201;28;20030;-51
2023/11/06 02:15:05;;;;;;;5.17;0.70;;;10.30;99.90;;;;;;5039083;28;20099;-51
2023/11/06 02:17:31;;;;;;;1.63;0.73;;;10.30;99.90;;;;;;5021295;28;20041;-51
2023/11/06 02:19:56;;;;;;;1.80;0.83;;;10.30;99.90;;;;;;5020806;28;20398;-52
2023/11/06 02:22:23;;;;;;;1.80;0.70;;;10.30;99.90;;;;;;5021418;28;20143;-50
2023/11/06 02:24:50;;;;;;;5.07;0.57;;;10.40;99.90;;;;;;5020830;28;20093;-53
2023/11/06 02:27:17;;;;;;;2.63;0.47;;;10.40;99.90;;;;;;5020008;28;20401;-49
2023/11/06 02:29:43;;;;;;;3.53;0.73;;;10.40;99.90;;;;;;5020541;28;20289;-50
2023/11/06 02:32:09;;;;;;;2.43;0.70;;;10.40;99.90;;;;;;5039115;28;20029;-51
2023/11/06 02:34:37;;;;;;;2.57;0.60;;;10.40;99.90;;;;;;5020326;28;20035;-53
2023/11/06 02:37:08;;;;;;;2.97;0.80;;;10.40;99.90;;;;;;5020964;28;20026;-51
2023/11/06 02:39:34;;;;;;;2.37;0.57;;;10.40;99.90;;;;;;5039294;28;20037;-54
2023/11/06 02:42:07;;;;;;;1.00;0.50;;;10.40;99.90;;;;;;5020769;28;20033;-50
2023/11/06 02:44:32;;;;;;;0.97;0.50;;;10.40;99.90;;;;;;5020537;28;20068;-50
2023/11/06 02:46:58;;;;;;;2.27;0.90;;;10.40;99.90;;;;;;5019873;28;20052;-52
2023/11/06 02:49:24;;;;;;;4.20;0.83;;;10.40;99.90;;;;;;5037657;28;20044;-51
2023/11/06 02:51:51;;;;;;;3.10;0.40;;;10.40;99.90;;;;;;5037465;28;20112;-50
2023/11/06 02:54:22;;;;;;;1.77;0.77;;;10.40;99.90;;;;;;5038154;28;20033;-50
2023/11/06 02:56:48;;;;;;;1.83;0.60;;;10.40;99.90;;;;;;5019684;28;20040;-50
2023/11/06 02:59:14;;;;;;;4.67;0.60;;;10.40;99.90;;;;;;5019770;28;20030;-52
2023/11/06 03:01:41;;;;;;;3.40;0.67;;;10.40;99.90;;;;;;5020584;28;20056;-51
2023/11/06 03:04:07;;;;;;;2.43;0.70;;;10.40;99.90;;;;;;5037598;28;20037;-50
2023/11/06 03:06:32;;;;;;;6.77;0.70;;;10.40;99.90;;;;;;5020542;28;20033;-49
2023/11/06 03:08:58;;;;;;;1.97;0.47;;;10.40;99.90;;;;;;5020000;28;20029;-50
2023/11/06 03:11:24;;;;;;;4.10;0.70;;;10.40;99.90;;;;;;5037715;28;20067;-50
2023/11/06 03:13:50;;;;;;;4.07;0.77;;;10.40;99.90;;;;;;5020066;28;20029;-50
2023/11/06 03:16:18;;;;;;;3.50;0.80;;;10.40;99.90;;;;;;5019358;28;20112;-51
2023/11/06 03:18:44;;;;;;;2.67;0.73;;;10.40;99.90;;;;;;5019501;28;20033;-55
2023/11/06 03:21:10;;;;;;;2.43;0.60;;;10.40;99.90;;;;;;5017297;28;20037;-54
2023/11/06 03:23:37;;;;;;;2.33;1.00;;;10.40;99.90;;;;;;5034621;28;20470;-53
2023/11/06 03:26:03;;;;;;;2.43;0.50;;;10.40;99.90;;;;;;5034558;28;20039;-56
2023/11/06 03:28:29;;;;;;;1.97;0.20;;;10.40;99.90;;;;;;5015974;28;20041;-55
2023/11/06 03:30:55;;;;;;;2.37;0.60;;;10.40;99.90;;;;;;5033881;28;20033;-56
2023/11/06 03:33:21;;;;;;;4.03;0.97;;;10.40;99.90;;;;;;5034008;28;20022;-56
2023/11/06 03:35:46;;;;;;;4.13;0.70;;;10.40;99.90;;;;;;5016199;28;20029;-55
2023/11/06 03:38:12;;;;;;;3.67;0.50;;;10.40;99.90;;;;;;5015779;28;20106;-55
2023/11/06 03:40:38;;;;;;;4.43;0.63;;;10.40;99.90;;;;;;5015663;28;20029;-55
2023/11/06 03:43:04;;;;;;;1.23;0.67;;;10.40;99.90;;;;;;5016327;28;20033;-54
2023/11/06 03:45:30;;;;;;;2.90;0.60;;;10.50;99.90;;;;;;5033727;28;20108;-55
2023/11/06 03:47:56;;;;;;;1.57;0.53;;;10.50;99.90;;;;;;5016031;28;20072;-54
2023/11/06 03:50:22;;;;;;;1.90;0.60;;;10.50;99.90;;;;;;5016209;28;20060;-55
2023/11/06 03:52:47;;;;;;;2.00;0.60;;;10.40;99.90;;;;;;4999506;28;20108;-55
2023/11/06 03:55:13;;;;;;;1.80;0.97;;;10.40;99.90;;;;;;5000012;28;20029;-55
2023/11/06 03:57:39;;;;;;;2.07;0.77;;;10.40;99.90;;;;;;5032984;28;20116;-55
2023/11/06 04:00:09;;;;;;;3.40;0.80;;;10.40;99.90;;;;;;5033511;28;20033;-55
2023/11/06 04:02:37;;;;;;;3.63;0.70;;;10.40;99.90;;;;;;5033878;28;20041;-55
2023/11/06 04:05:03;;;;;;;2.40;0.70;;;10.50;99.90;;;;;;5033680;28;20116;-56
2023/11/06 04:07:29;;;;;;;4.07;0.67;;;10.50;99.90;;;;;;5033320;28;20124;-55
2023/11/06 04:09:56;;;;;;;5.77;1.07;;;10.50;99.90;;;;;;5015639;28;20037;-53
2023/11/06 04:12:22;;;;;;;1.20;0.50;;;10.40;99.90;;;;;;5032820;28;20394;-56
2023/11/06 04:14:48;;;;;;;2.27;0.63;;;10.40;99.90;;;;;;5033935;28;20030;-51
2023/11/06 04:17:14;;;;;;;1.77;0.70;;;10.40;99.90;;;;;;5017929;28;20122;-54
2023/11/06 04:19:41;;;;;;;3.97;0.63;;;10.40;99.90;;;;;;5017358;28;20030;-53
2023/11/06 04:22:07;;;;;;;2.10;0.50;;;10.40;99.90;;;;;;5035375;28;20076;-55
2023/11/06 04:24:33;;;;;;;2.00;0.70;;;10.30;99.90;;;;;;5035336;28;20414;-54
2023/11/06 04:26:59;;;;;;;8.47;1.00;;;10.30;99.90;;;;;;5035329;28;20033;-51
2023/11/06 04:29:24;;;;;;;2.77;1.07;;;10.30;99.90;;;;;;5017330;28;20057;-53
2023/11/06 04:31:50;;;;;;;1.63;0.60;;;10.30;99.90;;;;;;5035831;28;20030;-54
2023/11/06 04:34:16;;;;;;;3.57;0.93;;;10.30;99.90;;;;;;5035421;28;20091;-50
2023/11/06 04:36:42;;;;;;;4.13;0.57;;;10.30;99.90;;;;;;5035181;28;20071;-53
2023/11/06 04:39:09;;;;;;;2.20;0.70;;;10.20;99.90;;;;;;5034889;28;20032;-55
2023/11/06 04:41:39;;;;;;;3.60;0.67;;;10.20;99.90;;;;;;5035021;28;20030;-52
2023/11/06 04:44:05;;;;;;;3.03;0.70;;;10.20;99.90;;;;;;5035220;28;20026;-52
2023/11/06 04:46:31;;;;;;;3.53;1.00;;;10.20;99.90;;;;;;5034819;28;20133;-52
2023/11/06 04:48:57;;;;;;;1.97;0.60;;;10.20;99.90;;;;;;5034429;28;20057;-52
2023/11/06 04:51:22;;;;;;;3.33;0.60;;;10.20;99.90;;;;;;5034567;28;20406;-53
2023/11/06 04:53:48;;;;;;;4.37;0.90;;;10.20;99.90;;;;;;5034591;28;20053;-55
2023/11/06 04:56:14;;;;;;;3.73;0.83;;;10.20;99.90;;;;;;5035190;28;20029;-50
2023/11/06 04:58:39;;;;;;;7.27;1.53;;;10.20;99.90;;;;;;5038596;28;20494;-53
2023/11/06 05:01:06;;;;;;;3.77;1.03;;;10.20;99.90;;;;;;5038886;28;20033;-52
2023/11/06 05:03:35;;;;;;;3.70;0.77;;;10.20;99.90;;;;;;5038177;28;20040;-54
2023/11/06 05:06:01;;;;;;;3.85;0.90;;;10.20;99.90;;;;;;5020802;28;20103;-54
2023/11/06 05:08:28;;;;;;;3.47;0.87;;;10.20;99.90;;;;;;5037213;28;20029;-55
2023/11/06 05:10:55;;;;;;;4.90;0.87;;;10.20;99.90;;;;;;5038697;28;20068;-54
2023/11/06 05:13:21;;;;;;;4.30;0.93;;;10.20;99.90;;;;;;5038416;28;20040;-54
2023/11/06 05:15:47;;;;;;;5.40;1.00;;;10.20;99.90;;;;;;5037872;28;20104;-50
2023/11/06 05:18:13;;;;;;;4.27;1.20;;;10.20;99.90;;;;;;5020392;28;20524;-51
2023/11/06 05:20:42;;;;;;;3.83;1.00;;;10.20;99.90;;;;;;5038043;28;20100;-51
2023/11/06 05:23:08;;;;;;;6.20;1.00;;;10.20;99.90;;;;;;5019630;28;20135;-51
2023/11/06 05:25:35;;;;;;;1.97;0.53;;;10.20;99.90;;;;;;5037621;28;20171;-50
2023/11/06 05:28:00;;;;;;;5.00;0.90;;;10.10;99.90;;;;;;5019621;28;20037;-53
2023/11/06 05:30:26;;;;;;;2.70;1.20;;;10.20;99.90;;;;;;5037847;28;20041;-54
2023/11/06 05:32:55;;;;;;;6.23;1.00;;;10.20;99.90;;;;;;5020221;28;20026;-55
2023/11/06 05:35:21;;;;;;;5.65;0.88;;;10.20;99.90;;;;;;5019743;28;20034;-53
2023/11/06 05:37:47;;;;;;;4.40;1.17;;;10.20;99.90;;;;;;5036671;28;20034;-54
2023/11/06 05:40:13;;;;;;;4.17;1.00;;;10.20;99.90;;;;;;5037775;28;20044;-54
2023/11/06 05:42:39;;;;;;;3.23;0.90;;;10.20;99.90;;;;;;5037844;28;20120;-53
2023/11/06 05:45:07;;;;;;;2.03;0.70;;;10.20;99.90;;;;;;5037271;28;20042;-52
2023/11/06 05:47:33;;;;;;;7.13;1.30;;;10.20;99.90;;;;;;5036891;28;20030;-52
2023/11/06 05:49:58;;;;;;;8.20;2.17;;;10.20;99.90;;;;;;5036873;28;20083;-54
2023/11/06 05:52:24;;;;;;;6.90;1.53;;;10.20;99.90;;;;;;5036807;28;20033;-54
2023/11/06 05:54:50;;;;;;;7.90;1.97;;;10.20;99.90;;;;;;5036997;28;20033;-55
2023/11/06 05:57:16;;;;;;;6.53;1.40;;;10.30;99.90;;;;;;5036683;28;20390;-51
2023/11/06 05:59:42;;;;;;;8.43;2.20;;;10.30;99.90;;;;;;5036875;28;20041;-53
2023/11/06 06:02:10;;;;;;;9.67;2.13;;;10.30;99.90;;;;;;5037183;28;20056;-53
2023/11/06 06:04:37;;;;;;;7.73;1.60;;;10.30;99.90;;;;;;5036815;28;20120;-53
2023/11/06 06:07:02;;;;;;;7.23;1.70;;;10.30;99.90;;;;;;5037003;28;20517;-51
2023/11/06 06:09:28;;;;;;;10.40;2.00;;;10.30;99.90;;;;;;5035882;28;20026;-50
2023/11/06 06:11:54;;;;;;;10.33;1.90;;;10.30;99.90;;;;;;5018814;28;20025;-53
2023/11/06 06:14:21;;;;;;;10.37;2.17;;;10.30;99.90;;;;;;5036000;28;20113;-54
2023/11/06 06:16:49;;;;;;;8.93;1.90;;;10.30;99.90;;;;;;5036551;28;20482;-55
2023/11/06 06:19:18;;;;;;;19.03;6.57;;;10.30;99.90;;;;;;5036188;28;20033;-52
2023/11/06 06:21:47;;;;;;;10.55;3.92;;;10.20;99.90;;;;;;5036455;28;20026;-53
2023/11/06 06:24:13;;;;;;;9.15;2.40;;;10.20;99.90;;;;;;5018837;28;20536;-54
2023/11/06 06:26:39;;;;;;;12.10;2.27;;;10.20;99.90;;;;;;5035554;28;20026;-54
2023/11/06 06:29:05;;;;;;;6.87;1.33;;;10.30;99.90;;;;;;5018292;28;20506;-53
2023/11/06 06:31:30;;;;;;;10.47;2.00;;;10.30;99.90;;;;;;5036718;28;20036;-52
2023/11/06 06:33:56;;;;;;;8.43;1.20;;;10.20;99.90;;;;;;5036493;28;20018;-53
2023/11/06 06:36:25;;;;;;;5.70;1.27;;;10.20;99.90;;;;;;5036504;28;20029;-54
2023/11/06 06:38:51;;;;;;;5.65;1.45;;;10.30;99.90;;;;;;5036174;28;20103;-54
2023/11/06 06:41:17;;;;;;;7.03;1.50;;;10.20;99.90;;;;;;5018857;28;20026;-54
2023/11/06 06:43:43;;;;;;;10.37;1.40;;;10.20;99.90;;;;;;5035516;28;20574;-53
2023/11/06 06:46:09;;;;;;;4.20;1.30;;;10.20;99.90;;;;;;5035647;28;20029;-54
2023/11/06 06:48:35;;;;;;;9.93;1.70;;;10.10;99.90;;;;;;5035807;28;20041;-52
2023/11/06 06:51:00;;;;;;;10.43;1.67;;;10.20;99.90;;;;;;5035785;28;20482;-51
2023/11/06 06:53:26;;;;;;;9.03;1.50;;;10.20;99.90;;;;;;5036034;28;20068;-54
2023/11/06 06:55:52;;;;;;;5.57;1.97;;;10.20;99.90;;;;;;5036284;28;20394;-54
2023/11/06 06:58:18;;;;;;;10.10;1.17;;;10.20;99.90;;;;;;5035530;28;20029;-53
2023/11/06 07:00:44;;;;;;;5.60;1.10;;;10.30;99.90;;;;;;5035721;28;20056;-52
2023/11/06 07:03:10;;;;;;;7.87;1.00;;;10.20;99.90;;;;;;5035643;28;20417;-55
2023/11/06 07:05:37;;;;;;;5.63;0.83;;;10.30;99.90;;;;;;5035724;28;20033;-52
2023/11/06 07:08:02;;;;;;;7.03;1.37;;;10.30;99.90;;;;;;5035231;28;20033;-52
2023/11/06 07:10:30;;;;;;;7.20;1.17;;;10.30;99.90;;;;;;5017366;28;20045;-55
2023/11/06 07:12:56;;;;;;;7.53;1.53;;;10.30;99.90;;;;;;5017985;28;20040;-53
2023/11/06 07:15:25;;;;;;;6.87;1.20;;;10.40;99.90;;;;;;5035444;28;20122;-55
2023/11/06 07:17:52;;;;;;;7.13;1.10;;;10.40;99.90;;;;;;5035540;28;20052;-50
2023/11/06 07:20:18;;;;;;;3.30;0.70;;;10.40;99.90;;;;;;5034174;28;20082;-52
2023/11/06 07:22:44;;;;;;;4.70;1.53;;;10.40;99.90;;;;;;5018344;28;20261;-51
2023/11/06 07:25:10;;;;;;;7.33;1.20;;;10.40;99.90;;;;;;5035870;28;20053;-56
2023/11/06 07:27:36;;;;;;;6.00;0.90;;;10.40;99.90;;;;;;5035057;28;20041;-56
2023/11/06 07:30:03;;;;;;;11.53;1.27;;;10.40;99.90;;;;;;5035145;28;20038;-52
2023/11/06 07:32:28;;;;;;;5.03;1.30;;;10.40;99.90;;;;;;5017972;28;20083;-51
2023/11/06 07:34:54;;;;;;;5.70;1.30;;;10.40;99.90;;;;;;5036142;28;20474;-56
2023/11/06 07:37:20;;;;;;;5.03;1.10;;;10.40;99.90;;;;;;5034671;28;20092;-56
2023/11/06 07:39:45;;;;;;;5.67;1.23;;;10.40;99.90;;;;;;5034309;28;20052;-56
2023/11/06 07:42:11;;;;;;;5.77;2.20;;;10.40;99.90;;;;;;5034379;28;20072;-54
2023/11/06 07:44:39;;;;;;;6.40;0.80;;;10.50;99.90;;;;;;5035126;28;20033;-52
2023/11/06 07:47:06;;;;;;;6.50;1.23;;;10.60;99.90;;;;;;5034932;28;20166;-54
2023/11/06 07:49:31;;;;;;;7.40;1.07;;;10.60;99.90;;;;;;5034372;28;20069;-53
2023/11/06 07:51:57;;;;;;;2.17;1.27;;;10.70;99.90;;;;;;5034982;28;20022;-55
2023/11/06 07:54:23;;;;;;;2.73;1.00;;;10.70;99.90;;;;;;5017407;28;20034;-54
2023/11/06 07:56:50;;;;;;;3.83;0.93;;;10.80;99.90;;;;;;5035082;28;20030;-54
2023/11/06 07:59:16;;;;;;;4.50;1.40;;;10.80;99.90;;;;;;5034280;28;20437;-53
2023/11/06 08:01:42;;;;;;;6.13;1.00;;;10.80;99.90;;;;;;5035160;28;20029;-52
2023/11/06 08:04:07;;;;;;;7.77;1.03;;;10.80;99.90;;;;;;5017133;28;20282;-52
2023/11/06 08:06:33;;;;;;;5.40;0.83;;;10.80;99.90;;;;;;5016333;28;20040;-54
2023/11/06 08:08:59;;;;;;;17.37;6.70;;;10.80;99.90;;;;;;5034294;28;20033;-52
2023/11/06 08:11:26;;;;;;;4.83;1.10;;;10.80;99.90;;;;;;5034955;28;20099;-54
2023/11/06 08:13:51;;;;;;;4.30;0.70;;;10.80;99.90;;;;;;5034219;28;20402;-54
2023/11/06 08:16:17;;;;;;;8.40;1.00;;;10.80;99.90;;;;;;5034885;28;20030;-54
2023/11/06 08:18:43;;;;;;;5.37;1.03;;;10.90;99.90;;;;;;5015745;28;20044;-53
2023/11/06 08:21:10;;;;;;;7.50;1.43;;;10.90;99.90;;;;;;5034555;28;20034;-52
2023/11/06 08:23:36;;;;;;;3.20;1.43;;;10.90;99.90;;;;;;5034024;28;20038;-52
2023/11/06 08:26:01;;;;;;;7.70;1.07;;;10.90;99.90;;;;;;5034419;28;20037;-55
2023/11/06 08:28:27;;;;;;;12.27;1.63;;;10.90;99.90;;;;;;5033691;28;20036;-54
2023/11/06 08:30:53;;;;;;;10.03;1.77;;;10.90;99.90;;;;;;5034458;28;20036;-52
2023/11/06 08:33:20;;;;;;;7.00;1.30;;;11.00;99.90;;;;;;5037576;28;20040;-54
2023/11/06 08:35:46;;;;;;;7.10;1.43;;;11.00;99.90;;;;;;5038224;28;20032;-54
2023/11/06 08:38:12;;;;;;;3.67;0.70;;;11.00;99.90;;;;;;5037973;28;20037;-49
2023/11/06 08:40:37;;;;;;;3.93;0.87;;;11.00;99.90;;;;;;5037602;28;20048;-55
2023/11/06 08:43:04;;;;;;;8.03;1.90;;;11.10;99.90;;;;;;5038688;28;20033;-55
2023/11/06 08:45:29;;;;;;;7.90;0.97;;;11.10;99.90;;;;;;5037772;28;20026;-53
2023/11/06 08:47:55;;;;;;;7.57;1.40;;;11.10;99.90;;;;;;5037847;28;20037;-54
2023/11/06 08:50:21;;;;;;;7.00;1.10;;;11.10;99.90;;;;;;5037933;28;20036;-55
2023/11/06 08:52:47;;;;;;;3.33;0.70;;;11.10;99.90;;;;;;5038527;28;20099;-51
2023/11/06 08:55:13;;;;;;;5.73;1.10;;;11.10;99.90;;;;;;5038006;28;20085;-55
2023/11/06 08:57:39;;;;;;;2.17;0.80;;;11.10;99.90;;;;;;5037872;28;20038;-51
2023/11/06 09:00:08;;;;;;;4.93;0.80;;;11.10;99.90;;;;;;5019849;28;20029;-54
2023/11/06 09:02:34;;;;;;;4.67;0.90;;;11.10;99.90;;;;;;5037671;28;20385;-53
2023/11/06 09:05:00;;;;;;;4.10;0.60;;;11.10;99.90;;;;;;5037249;28;20552;-53
2023/11/06 09:07:27;;;;;;;6.87;0.77;;;11.20;99.90;;;;;;5037366;28;20041;-55
2023/11/06 09:09:53;;;;;;;6.27;1.30;;;11.40;99.90;;;;;;5019020;28;20025;-55
2023/11/06 09:12:18;;;;;;;3.50;1.00;;;11.50;99.90;;;;;;5037310;28;20094;-54
2023/11/06 09:14:44;;;;;;;8.53;1.00;;;11.40;99.90;;;;;;5038088;28;20029;-55
2023/11/06 09:17:10;;;;;;;3.50;0.80;;;11.40;99.90;;;;;;5019719;28;20061;-52
2023/11/06 09:19:35;;;;;;;7.90;0.90;;;11.40;99.90;;;;;;5037151;28;20029;-55
2023/11/06 09:22:01;;;;;;;4.47;0.63;;;11.50;99.90;;;;;;5036772;28;20033;-55
2023/11/06 09:24:29;;;;;;;4.60;0.80;;;11.60;99.90;;;;;;5019520;28;20108;-54
2023/11/06 09:26:56;;;;;;;4.63;0.70;;;11.80;99.90;;;;;;5037217;28;20045;-54
2023/11/06 09:29:21;;;;;;;5.13;0.77;;;12.10;99.90;;;;;;5037545;28;20369;-50
2023/11/06 09:31:47;;;;;;;4.82;0.63;;;13.30;99.90;;;;;;5037799;28;20104;-51
2023/11/06 09:34:13;;;;;;;6.55;1.30;;;14.40;99.90;;;;;;5037200;28;20021;-54
2023/11/06 09:36:38;;;;;;;4.90;0.90;;;15.10;99.90;;;;;;5036734;28;20036;-55
2023/11/06 09:39:08;;;;;;;3.45;0.90;;;16.00;99.90;;;;;;5037377;28;20053;-53
2023/11/06 09:41:37;;;;;;;8.98;1.65;;;16.40;99.90;;;;;;5037002;28;20440;-52
2023/11/06 09:44:05;;;;;;;3.30;0.95;;;17.00;99.90;;;;;;5017857;28;20124;-54
2023/11/06 09:46:30;;;;;;;7.00;0.90;;;17.10;99.90;;;;;;5019142;28;20124;-55
2023/11/06 09:49:02;;;;;;;5.32;1.90;;;17.60;99.90;;;;;;5037279;28;20049;-54
2023/11/06 09:51:33;;;;;;;5.85;1.38;;;18.40;99.80;;;;;;5037781;28;20034;-53
2023/11/06 09:54:04;;;;;;;3.55;0.85;;;19.30;98.30;;;;;;5037152;28;20045;-52
2023/11/06 09:56:29;;;;;;;5.90;0.85;;;19.60;97.40;;;;;;5037003;28;20061;-51
2023/11/06 09:58:55;;;;;;;5.03;0.98;;;19.80;97.00;;;;;;5037017;28;20056;-53
2023/11/06 10:01:27;;;;;;;3.30;1.02;;;20.00;96.30;;;;;;5037203;28;20029;-53
2023/11/06 10:03:55;;;;;;;4.05;1.17;;;20.40;96.00;;;;;;5036235;28;20478;-52
2023/11/06 10:06:21;;;;;;;5.28;1.15;;;19.60;95.40;;;;;;5036586;28;20109;-54
2023/11/06 10:08:46;;;;;;;4.82;1.33;;;18.70;96.90;;;;;;5036685;28;20125;-53
2023/11/06 10:11:21;;;;;;;10.27;3.38;;;18.40;97.50;;;;;;5018657;28;20033;-54
2023/11/06 10:13:54;;;;;;;5.43;1.17;;;18.90;97.20;;;;;;5036581;28;20034;-51
2023/11/06 10:16:22;;;;;;;3.20;1.02;;;19.30;96.40;;;;;;5036226;28;20305;-54
2023/11/06 10:19:07;;;;;;;3.72;0.80;;;19.80;95.90;;;;;;5036514;28;20052;-54
2023/11/06 10:21:34;;;;;;;5.00;0.82;;;19.80;96.00;;;;;;5036138;28;20123;-52
2023/11/06 10:24:01;;;;;;;5.80;0.60;;;19.90;95.10;;;;;;5036724;28;20080;-55
2023/11/06 10:26:31;;;;;;;3.95;0.85;;;20.10;94.60;;;;;;5036158;28;20227;-54
2023/11/06 10:29:17;;;;;;;4.88;0.80;;;19.50;95.00;;;;;;5035696;28;20106;-54
2023/11/06 10:31:47;;;;;;;3.22;0.70;;;18.10;96.90;;;;;;5035608;28;20033;-53
2023/11/06 10:34:29;;;;;;;4.43;0.82;;;16.50;99.90;;;;;;5036354;28;20038;-51
2023/11/06 10:37:05;;;;;;;5.20;1.58;;;15.60;99.90;;;;;;5035695;28;20087;-53
2023/11/06 10:39:31;;;;;;;6.57;0.90;;;15.60;99.90;;;;;;5035828;28;20037;-53
2023/11/06 10:42:04;;;;;;;3.58;1.05;;;16.20;99.90;;;;;;5035578;28;20120;-52
2023/11/06 10:44:32;;;;;;;14.30;4.38;;;16.50;99.90;;;;;;5035797;28;20037;-55
2023/11/06 10:47:08;;;;;;;5.85;1.45;;;16.50;99.90;;;;;;5035490;28;20029;-54
2023/11/06 10:49:47;;;;;;;10.68;3.13;;;16.90;99.90;;;;;;5035316;28;20024;-54
2023/11/06 10:52:13;;;;;;;7.75;1.88;;;17.50;99.50;;;;;;5035975;28;20032;-51
2023/11/06 10:54:40;;;;;;;5.03;0.90;;;17.10;99.90;;;;;;5035645;28;20034;-52
2023/11/06 10:57:07;;;;;;;6.68;1.02;;;16.50;99.90;;;;;;5035424;28;20026;-54
2023/11/06 10:59:34;;;;;;;3.22;0.80;;;16.00;99.90;;;;;;5035830;28;20034;-52
2023/11/06 11:02:03;;;;;;;4.88;0.77;;;15.50;99.90;;;;;;5036132;28;20044;-55
2023/11/06 11:04:32;;;;;;;7.05;0.88;;;14.80;99.90;;;;;;5035354;28;20025;-53
2023/11/06 11:06:59;;;;;;;5.53;0.80;;;14.30;99.90;;;;;;5034959;28;20033;-53
2023/11/06 11:09:25;;;;;;;3.78;0.70;;;14.00;99.90;;;;;;5017411;28;20037;-53
2023/11/06 11:11:51;;;;;;;4.30;1.33;;;13.80;99.90;;;;;;5035749;28;20044;-54
2023/11/06 11:14:17;;;;;;;4.07;0.60;;;13.60;99.90;;;;;;5035647;28;20478;-55
2023/11/06 11:16:45;;;;;;;4.93;0.73;;;13.50;99.90;;;;;;5017531;28;20029;-52
2023/11/06 11:19:39;;;;;;;3.10;0.95;;;13.40;99.90;;;;;;5035123;28;20052;-53
2023/11/06 11:22:09;;;;;;;5.47;1.02;;;13.30;99.90;;;;;;5032851;28;20037;-54
2023/11/06 11:24:41;;;;;;;5.57;0.93;;;13.30;99.90;;;;;;5035422;28;20040;-52
2023/11/06 11:27:08;;;;;;;4.88;0.70;;;13.30;99.90;;;;;;5035083;28;20040;-52
2023/11/06 11:29:53;;;;;;;2.22;0.75;;;13.20;99.90;;;;;;5017430;28;20504;-54
2023/11/06 11:32:47;;;;;;;2.40;0.60;;;13.40;99.90;;;;;;5035398;28;20033;-55
2023/11/06 11:35:32;;;;;;;6.53;0.93;;;13.50;99.90;;;;;;5035585;28;20030;-54
2023/11/06 11:37:58;;;;;;;5.30;1.63;;;13.50;99.90;;;;;;5034211;28;20033;-52
2023/11/06 11:40:42;;;;;;;5.80;0.85;;;13.50;99.90;;;;;;5035008;28;20112;-52
2023/11/06 11:43:23;;;;;;;2.60;0.75;;;13.50;99.90;;;;;;5034981;28;20036;-52
2023/11/06 11:45:48;;;;;;;3.28;0.80;;;13.50;99.90;;;;;;5035317;28;20053;-52
2023/11/06 11:48:15;;;;;;;6.28;1.30;;;13.40;99.90;;;;;;5016656;28;20072;-53
2023/11/06 11:50:41;;;;;;;4.80;1.27;;;13.40;99.90;;;;;;5034852;28;20030;-50
2023/11/06 11:53:08;;;;;;;4.22;1.45;;;13.30;99.90;;;;;;5034813;28;20026;-53
2023/11/06 11:55:38;;;;;;;5.00;1.10;;;13.20;99.90;;;;;;5035019;28;20059;-54
2023/11/06 11:58:06;;;;;;;2.72;0.95;;;13.10;99.90;;;;;;5034217;28;20034;-52
2023/11/06 12:00:33;;;;;;;2.03;0.93;;;13.20;99.90;;;;;;5034755;28;20029;-54
2023/11/06 12:03:14;;;;;;;2.25;0.50;;;13.10;99.90;;;;;;5034352;28;20033;-54
2023/11/06 12:05:41;;;;;;;3.35;0.70;;;13.00;99.90;;;;;;5016869;28;20093;-54
2023/11/06 12:08:26;;;;;;;6.63;1.30;;;13.00;99.90;;;;;;5037907;28;20041;-53
2023/11/06 12:10:53;;;;;;;2.92;0.57;;;13.10;99.90;;;;;;5039179;28;20044;-54
2023/11/06 12:13:24;;;;;;;2.58;0.73;;;13.20;99.90;;;;;;5021235;28;20026;-53
2023/11/06 12:15:53;;;;;;;1.63;0.40;;;13.60;99.90;;;;;;5039008;28;20045;-54
2023/11/06 12:18:24;;;;;;;1.88;0.75;;;13.80;99.90;;;;;;5038673;28;20033;-54
2023/11/06 12:20:56;;;;;;;2.60;0.70;;;14.20;99.90;;;;;;5039305;28;20033;-52
2023/11/06 12:23:31;;;;;;;4.35;0.95;;;15.20;99.90;;;;;;5039155;28;20033;-52
2023/11/06 12:26:06;;;;;;;5.32;1.33;;;14.90;99.90;;;;;;5020587;28;20136;-54
2023/11/06 12:28:32;;;;;;;3.13;0.95;;;14.60;99.90;;;;;;5037962;28;20064;-53
2023/11/06 12:30:57;;;;;;;4.70;1.08;;;14.20;99.90;;;;;;5037827;28;20044;-54
2023/11/06 12:33:23;;;;;;;3.75;1.10;;;13.90;99.90;;;;;;5038567;28;20026;-52
2023/11/06 12:35:53;;;;;;;5.43;1.00;;;13.70;99.90;;;;;;5038119;28;20034;-53
2023/11/06 12:38:38;;;;;;;4.05;0.60;;;13.60;99.90;;;;;;5020028;28;20069;-53
2023/11/06 12:41:05;;;;;;;5.30;1.20;;;13.80;99.90;;;;;;5020121;28;20025;-53
2023/11/06 12:43:34;;;;;;;3.33;1.08;;;14.20;99.90;;;;;;5038344;28;20068;-53
2023/11/06 12:46:01;;;;;;;5.25;0.55;;;14.30;99.90;;;;;;5020990;28;20083;-53